Main page
METAR-TAF:

METAR-TAF

Airports :

Sarajevo International Airport

Sarajevo, Bosnia and Herzegovina

latitude: 43-49N, longitude: 018-20E, elevation: 511 m

Current weather observation

The report was made 45 minutes ago, at 23:00 UTC
Wind 3 kt from the South/Southeast, varying between East/Southeast and South
Temperature 16°C
Humidity 82%
Pressure 1016 hPa
Visibility 10 km or more
no clouds below 1500 m and no cumulonimbus

METAR: LQSA 202300Z 15003KT 120V180 CAVOK 16/13 Q1016

Time: 01:45 (23:45 UTC)

Forecast

The report was made 45 minutes ago, at 23:00 UTC
Forecast valid from 21 at 00 UTC to 21 at 24 UTC
Wind 2 kt from variable directions
Visibility 10 km or more
no clouds below 1500 m and no cumulonimbus
Temporary
from 21 at 13 UTC to 21 at 18 UTC
Wind 15 kt from the West

TAF: LQSA 202300Z 2100/2124 VRB02KT CAVOK TX32/2113Z TN13/2103Z TEMPO 2113/2118 26015KT

Weather observations and forecasts of more than 4000 airports (METAR and TAF reports).

The available stations are represented by yellow and red dots on the map.

Hover mouse over dot to see the name of the station.

Then click to see weather observations and forecasts.

To change the map : click on the green buttons with a black cross to zoom in, on the green button with a dash to zoom out, or on the green arrows for adjacent maps.


METAR-TAF: